createdAt,value
2018-07-22T00:00:26.606Z,19.74
2018-07-22T00:01:26.602Z,19.71
2018-07-22T00:02:26.597Z,19.71
2018-07-22T00:03:26.593Z,19.77
2018-07-22T00:04:26.591Z,19.79
2018-07-22T00:05:26.587Z,19.67
2018-07-22T00:06:26.583Z,19.76
2018-07-22T00:07:26.580Z,19.70
2018-07-22T00:08:26.576Z,19.64
2018-07-22T00:09:26.779Z,19.66
2018-07-22T00:10:26.570Z,19.64
2018-07-22T00:11:26.566Z,19.69
2018-07-22T00:12:26.568Z,19.66
2018-07-22T00:13:26.559Z,19.70
2018-07-22T00:14:26.556Z,19.67
2018-07-22T00:15:26.553Z,19.74
2018-07-22T00:16:26.555Z,19.73
2018-07-22T00:17:26.546Z,19.66
2018-07-22T00:18:26.543Z,19.63
2018-07-22T00:19:26.539Z,19.74
2018-07-22T00:20:26.536Z,19.73
2018-07-22T00:21:26.533Z,19.69
2018-07-22T00:22:26.530Z,19.56
2018-07-22T00:23:26.526Z,19.51
2018-07-22T00:24:26.523Z,19.51
2018-07-22T00:25:26.519Z,19.51
2018-07-22T00:26:26.517Z,19.41
2018-07-22T00:27:26.512Z,19.44
2018-07-22T00:28:26.509Z,19.44
2018-07-22T00:29:26.506Z,19.34
2018-07-22T00:30:26.503Z,19.36
2018-07-22T00:31:26.498Z,19.37
2018-07-22T00:32:26.495Z,19.34
2018-07-22T00:33:26.492Z,19.44
2018-07-22T00:34:26.489Z,19.39
2018-07-22T00:35:26.485Z,19.39
2018-07-22T00:36:26.483Z,19.40
2018-07-22T00:37:26.478Z,19.39
2018-07-22T00:38:26.476Z,19.30
2018-07-22T00:39:26.473Z,19.27
2018-07-22T00:40:26.467Z,19.26
2018-07-22T00:41:26.464Z,19.29
2018-07-22T00:42:26.463Z,19.27
2018-07-22T00:43:26.456Z,19.21
2018-07-22T00:44:26.454Z,19.16
2018-07-22T00:45:26.450Z,19.18
2018-07-22T00:46:26.451Z,19.12
2018-07-22T00:47:26.443Z,19.16
2018-07-22T00:48:26.440Z,19.16
2018-07-22T00:49:26.436Z,19.12
2018-07-22T00:50:26.433Z,19.15
2018-07-22T00:51:26.429Z,19.18
2018-07-22T00:52:26.426Z,19.29
2018-07-22T00:53:26.423Z,19.24
2018-07-22T00:54:26.420Z,19.21
2018-07-22T00:55:26.415Z,19.21
2018-07-22T00:56:26.412Z,19.21
2018-07-22T00:57:26.409Z,19.18
2018-07-22T00:58:26.406Z,19.11
2018-07-22T00:59:26.402Z,19.02
2018-07-22T01:00:26.399Z,19.09
2018-07-22T01:01:26.396Z,18.96
2018-07-22T01:02:26.392Z,19.00
2018-07-22T01:03:26.390Z,19.08
2018-07-22T01:04:26.387Z,18.98
2018-07-22T01:05:26.382Z,19.02
2018-07-22T01:06:26.378Z,18.98
2018-07-22T01:07:26.375Z,18.90
2018-07-22T01:08:26.371Z,18.90
2018-07-22T01:09:26.368Z,18.93
2018-07-22T01:10:26.365Z,18.88
2018-07-22T01:11:26.360Z,18.88
2018-07-22T01:12:26.357Z,18.86
2018-07-22T01:13:26.354Z,18.90
2018-07-22T01:14:26.351Z,18.92
2018-07-22T01:15:26.346Z,18.98
2018-07-22T01:16:26.343Z,18.92
2018-07-22T01:17:26.340Z,18.89
2018-07-22T01:18:26.336Z,18.95
2018-07-22T01:19:26.333Z,18.86
2018-07-22T01:20:26.330Z,18.86
2018-07-22T01:21:26.326Z,18.93
2018-07-22T01:22:26.322Z,18.86
2018-07-22T01:23:26.319Z,18.90
2018-07-22T01:24:26.520Z,18.93
2018-07-22T01:25:26.312Z,18.86
2018-07-22T01:26:26.310Z,18.86
2018-07-22T01:27:26.305Z,18.78
2018-07-22T01:28:26.301Z,18.81
2018-07-22T01:29:26.298Z,18.80
2018-07-22T01:30:26.295Z,18.81
2018-07-22T01:31:26.290Z,18.81
2018-07-22T01:32:26.330Z,18.74
2018-07-22T01:33:26.286Z,18.70
2018-07-22T01:34:26.281Z,18.70
2018-07-22T01:35:26.276Z,18.70
2018-07-22T01:36:26.272Z,18.66
2018-07-22T01:37:26.269Z,18.58
2018-07-22T01:38:26.266Z,18.56
2018-07-22T01:39:26.267Z,18.52
2018-07-22T01:40:26.258Z,18.52
2018-07-22T01:41:26.255Z,18.56
2018-07-22T01:42:26.252Z,18.58
2018-07-22T01:43:26.248Z,18.50
2018-07-22T01:44:26.244Z,18.52
2018-07-22T01:45:26.240Z,18.50
2018-07-22T01:46:26.239Z,18.45
2018-07-22T01:47:26.232Z,18.50
2018-07-22T01:48:26.229Z,18.43
2018-07-22T01:49:26.227Z,18.52
2018-07-22T01:50:26.222Z,18.40
2018-07-22T01:51:26.235Z,18.41
2018-07-22T01:52:26.215Z,18.43
2018-07-22T01:53:26.211Z,18.44
2018-07-22T01:54:26.207Z,18.34
2018-07-22T01:55:26.203Z,18.37
2018-07-22T01:56:26.258Z,18.38
2018-07-22T01:57:26.196Z,18.33
2018-07-22T01:58:26.193Z,18.33
2018-07-22T01:59:26.188Z,18.34
2018-07-22T02:00:26.184Z,18.34
2018-07-22T02:01:26.181Z,18.33
2018-07-22T02:02:26.183Z,18.25
2018-07-22T02:03:26.173Z,18.34
2018-07-22T02:04:26.169Z,18.26
2018-07-22T02:05:26.172Z,18.18
2018-07-22T02:06:26.163Z,18.20
2018-07-22T02:07:26.159Z,18.20
2018-07-22T02:08:26.155Z,18.16
2018-07-22T02:09:26.151Z,18.13
2018-07-22T02:10:26.147Z,18.07
2018-07-22T02:11:26.143Z,18.05
2018-07-22T02:12:26.141Z,18.01
2018-07-22T02:13:26.136Z,18.08
2018-07-22T02:14:26.132Z,18.07
2018-07-22T02:15:26.129Z,17.97
2018-07-22T02:16:26.124Z,17.98
2018-07-22T02:17:26.120Z,17.89
2018-07-22T02:18:26.116Z,17.98
2018-07-22T02:19:26.111Z,17.94
2018-07-22T02:20:26.108Z,17.83
2018-07-22T02:21:26.104Z,17.83
2018-07-22T02:22:26.100Z,17.82
2018-07-22T02:23:26.096Z,17.79
2018-07-22T02:24:26.095Z,17.76
2018-07-22T02:25:26.088Z,17.70
2018-07-22T02:26:26.094Z,17.67
2018-07-22T02:27:26.080Z,17.71
2018-07-22T02:28:26.076Z,17.71
2018-07-22T02:29:26.072Z,17.76
2018-07-22T02:30:26.068Z,17.78
2018-07-22T02:31:26.063Z,17.79
2018-07-22T02:32:26.059Z,17.85
2018-07-22T02:33:26.056Z,17.76
2018-07-22T02:34:26.055Z,17.87
2018-07-22T02:35:26.047Z,17.86
2018-07-22T02:36:26.045Z,17.87
2018-07-22T02:37:26.038Z,17.94
2018-07-22T02:38:26.034Z,17.98
2018-07-22T02:39:26.029Z,17.92
2018-07-22T02:40:26.025Z,17.90
2018-07-22T02:41:26.022Z,17.87
2018-07-22T02:42:26.017Z,17.89
2018-07-22T02:43:26.012Z,17.94
2018-07-22T02:44:26.008Z,17.94
2018-07-22T02:45:26.003Z,17.94
2018-07-22T02:46:25.999Z,17.89
2018-07-22T02:47:25.994Z,17.97
2018-07-22T02:48:25.990Z,17.95
2018-07-22T02:49:25.989Z,17.92
2018-07-22T02:50:25.982Z,17.92
2018-07-22T02:51:26.017Z,17.87
2018-07-22T02:52:25.972Z,17.80
2018-07-22T02:53:25.968Z,17.79
2018-07-22T02:54:25.969Z,17.68
2018-07-22T02:55:25.958Z,17.65
2018-07-22T02:56:25.955Z,17.64
2018-07-22T02:57:25.951Z,17.70
2018-07-22T02:58:25.946Z,17.68
2018-07-22T02:59:25.942Z,17.68
2018-07-22T03:00:25.939Z,17.60
2018-07-22T03:01:25.934Z,17.60
2018-07-22T03:02:25.930Z,17.59
2018-07-22T03:03:25.935Z,17.45
2018-07-22T03:04:25.928Z,17.56
2018-07-22T03:05:25.917Z,17.49
2018-07-22T03:06:25.913Z,17.56
2018-07-22T03:07:25.910Z,17.39
2018-07-22T03:08:25.903Z,17.41
2018-07-22T03:09:25.913Z,17.42
2018-07-22T03:10:25.896Z,17.36
2018-07-22T03:11:25.891Z,17.46
2018-07-22T03:12:25.886Z,17.36
2018-07-22T03:13:25.883Z,17.42
2018-07-22T03:14:25.878Z,17.31
2018-07-22T03:15:25.873Z,17.29
2018-07-22T03:16:25.869Z,17.33
2018-07-22T03:17:25.865Z,17.31
2018-07-22T03:18:25.860Z,17.31
2018-07-22T03:19:25.855Z,17.30
2018-07-22T03:20:25.851Z,17.24
2018-07-22T03:21:25.847Z,17.27
2018-07-22T03:22:25.843Z,17.31
2018-07-22T03:23:25.843Z,17.16
2018-07-22T03:24:25.834Z,17.26
2018-07-22T03:25:25.830Z,17.20
2018-07-22T03:26:25.826Z,17.11
2018-07-22T03:27:25.821Z,17.09
2018-07-22T03:28:25.818Z,17.12
2018-07-22T03:29:25.812Z,17.08
2018-07-22T03:30:25.809Z,16.99
2018-07-22T03:31:25.803Z,17.01
2018-07-22T03:32:25.799Z,17.01
2018-07-22T03:33:25.795Z,17.02
2018-07-22T03:34:25.792Z,16.99
2018-07-22T03:35:25.786Z,17.01
2018-07-22T03:36:25.781Z,16.96
2018-07-22T03:37:25.776Z,16.86
2018-07-22T03:38:25.772Z,16.86
2018-07-22T03:39:25.767Z,16.86
2018-07-22T03:40:25.768Z,16.89
2018-07-22T03:41:25.758Z,16.78
2018-07-22T03:42:25.758Z,16.83
2018-07-22T03:43:25.752Z,16.74
2018-07-22T03:44:25.748Z,16.71
2018-07-22T03:45:25.740Z,16.68
2018-07-22T03:46:25.738Z,16.71
2018-07-22T03:47:25.758Z,16.66
2018-07-22T03:48:25.726Z,16.65
2018-07-22T03:49:25.755Z,16.61
2018-07-22T03:50:25.717Z,16.61
2018-07-22T03:51:25.715Z,16.66
2018-07-22T03:52:25.707Z,16.68
2018-07-22T03:53:25.710Z,16.64
2018-07-22T03:54:25.725Z,16.66
2018-07-22T03:55:25.896Z,16.65
2018-07-22T03:56:25.687Z,16.72
2018-07-22T03:57:25.683Z,16.65
2018-07-22T03:58:25.680Z,16.68
2018-07-22T03:59:25.672Z,16.69
2018-07-22T04:00:25.668Z,16.68
2018-07-22T04:01:25.664Z,16.71
2018-07-22T04:02:25.662Z,16.74
2018-07-22T04:03:25.653Z,16.64
2018-07-22T04:04:25.654Z,16.72
2018-07-22T04:05:25.644Z,16.66
2018-07-22T04:06:25.642Z,16.71
2018-07-22T04:07:25.635Z,16.71
2018-07-22T04:08:25.632Z,16.72
2018-07-22T04:09:25.628Z,16.74
2018-07-22T04:10:25.634Z,16.74
2018-07-22T04:11:25.614Z,16.66
2018-07-22T04:12:25.613Z,16.64
2018-07-22T04:13:25.605Z,16.64
2018-07-22T04:14:25.606Z,16.64
2018-07-22T04:15:25.599Z,16.76
2018-07-22T04:16:25.590Z,16.65
2018-07-22T04:17:25.585Z,16.61
2018-07-22T04:18:25.581Z,16.71
2018-07-22T04:19:25.575Z,16.74
2018-07-22T04:20:25.571Z,16.74
2018-07-22T04:21:25.604Z,16.76
2018-07-22T04:22:25.562Z,16.78
2018-07-22T04:23:25.556Z,16.78
2018-07-22T04:24:25.555Z,16.86
2018-07-22T04:25:25.549Z,16.75
2018-07-22T04:26:25.543Z,16.83
2018-07-22T04:27:25.537Z,16.87
2018-07-22T04:28:25.537Z,16.93
2018-07-22T04:29:25.532Z,16.83
2018-07-22T04:30:25.533Z,16.91
2018-07-22T04:31:25.520Z,16.78
2018-07-22T04:32:25.516Z,16.87
2018-07-22T04:33:25.509Z,16.61
2018-07-22T04:34:25.508Z,16.68
2018-07-22T04:35:25.505Z,16.68
2018-07-22T04:36:25.495Z,16.71
2018-07-22T04:37:25.491Z,16.71
2018-07-22T04:38:25.486Z,16.71
2018-07-22T04:39:25.481Z,16.79
2018-07-22T04:40:25.480Z,16.79
2018-07-22T04:41:25.472Z,16.81
2018-07-22T04:42:25.467Z,16.81
2018-07-22T04:43:25.463Z,16.79
2018-07-22T04:44:25.459Z,16.84
2018-07-22T04:45:25.454Z,16.91
2018-07-22T04:46:25.449Z,16.89
2018-07-22T04:47:25.444Z,16.84
2018-07-22T04:48:25.442Z,16.87
2018-07-22T04:49:25.436Z,16.84
2018-07-22T04:50:25.635Z,16.81
2018-07-22T04:51:25.425Z,16.78
2018-07-22T04:52:25.430Z,16.64
2018-07-22T04:53:25.429Z,16.76
2018-07-22T04:54:25.412Z,16.76
2018-07-22T04:55:25.407Z,16.78
2018-07-22T04:56:25.403Z,16.79
2018-07-22T04:57:25.398Z,16.74
2018-07-22T04:58:25.394Z,16.75
2018-07-22T04:59:25.615Z,16.74
2018-07-22T05:00:25.389Z,16.81
2018-07-22T05:01:25.381Z,16.94
2018-07-22T05:02:25.376Z,16.86
2018-07-22T05:03:25.379Z,16.93
2018-07-22T05:04:25.370Z,16.87
2018-07-22T05:05:25.364Z,16.90
2018-07-22T05:06:25.560Z,16.96
2018-07-22T05:07:25.356Z,17.01
2018-07-22T05:08:25.353Z,16.90
2018-07-22T05:09:25.546Z,16.91
2018-07-22T05:10:25.340Z,16.86
2018-07-22T05:11:25.336Z,16.96
2018-07-22T05:12:25.331Z,16.91
2018-07-22T05:13:25.326Z,17.05
2018-07-22T05:14:25.323Z,17.01
2018-07-22T05:15:25.318Z,16.97
2018-07-22T05:16:25.313Z,16.96
2018-07-22T05:17:25.309Z,16.93
2018-07-22T05:18:25.305Z,16.90
2018-07-22T05:19:25.307Z,16.78
2018-07-22T05:20:25.498Z,16.74
2018-07-22T05:21:25.493Z,16.81
2018-07-22T05:22:25.290Z,16.83
2018-07-22T05:23:25.281Z,16.91
2018-07-22T05:24:25.278Z,16.94
2018-07-22T05:25:25.273Z,16.97
2018-07-22T05:26:25.269Z,17.06
2018-07-22T05:27:25.266Z,17.09
2018-07-22T05:28:25.268Z,17.12
2018-07-22T05:30:25.254Z,17.30
2018-07-22T05:31:25.251Z,17.31
2018-07-22T05:32:25.242Z,17.39
2018-07-22T05:33:25.243Z,17.36
2018-07-22T05:34:25.240Z,17.51
2018-07-22T05:35:25.229Z,17.54
2018-07-22T05:36:25.231Z,17.63
2018-07-22T05:38:25.218Z,17.68
2018-07-22T05:39:25.258Z,17.76
2018-07-22T05:40:25.210Z,17.76
2018-07-22T05:41:25.212Z,17.83
2018-07-22T05:42:25.202Z,17.90
2018-07-22T05:43:25.200Z,17.97
2018-07-22T05:44:25.194Z,17.95
2018-07-22T05:45:25.199Z,17.98
2018-07-22T05:46:25.187Z,18.07
2018-07-22T05:47:25.188Z,18.19
2018-07-22T05:48:25.180Z,18.22
2018-07-22T05:49:25.188Z,18.25
2018-07-22T05:50:25.173Z,18.29
2018-07-22T05:51:25.169Z,18.33
2018-07-22T05:52:25.165Z,18.40
2018-07-22T05:53:25.161Z,18.45
2018-07-22T05:54:25.168Z,18.50
2018-07-22T05:55:25.154Z,18.58
2018-07-22T05:56:25.151Z,18.59
2018-07-22T05:57:25.152Z,18.68
2018-07-22T05:58:25.143Z,18.80
2018-07-22T05:59:25.144Z,18.75
2018-07-22T06:00:25.137Z,18.75
2018-07-22T06:01:25.133Z,18.73
2018-07-22T06:02:25.131Z,18.77
2018-07-22T06:03:25.127Z,18.74
2018-07-22T06:04:25.122Z,18.86
2018-07-22T06:05:25.120Z,18.86
2018-07-22T06:06:25.117Z,18.88
2018-07-22T06:07:25.113Z,18.89
2018-07-22T06:08:25.112Z,18.86
2018-07-22T06:09:25.106Z,18.84
2018-07-22T06:10:25.103Z,18.89
2018-07-22T06:11:25.099Z,18.93
2018-07-22T06:12:25.097Z,18.99
2018-07-22T06:13:25.096Z,19.02
2018-07-22T06:14:25.090Z,19.26
2018-07-22T06:15:25.093Z,19.26
2018-07-22T06:16:25.083Z,19.27
2018-07-22T06:17:25.085Z,19.41
2018-07-22T06:18:25.079Z,19.52
2018-07-22T06:19:25.083Z,19.51
2018-07-22T06:20:25.072Z,19.52
2018-07-22T06:21:25.073Z,19.55
2018-07-22T06:22:25.066Z,19.45
2018-07-22T06:23:25.072Z,19.63
2018-07-22T06:24:25.061Z,19.66
2018-07-22T06:25:25.060Z,19.69
2018-07-22T06:26:25.055Z,19.67
2018-07-22T06:27:25.052Z,19.70
2018-07-22T06:28:25.052Z,19.66
2018-07-22T06:29:25.257Z,19.66
2018-07-22T06:30:25.048Z,19.63
2018-07-22T06:31:25.045Z,19.77
2018-07-22T06:32:25.077Z,19.67
2018-07-22T06:33:25.045Z,19.76
2018-07-22T06:34:25.034Z,19.79
2018-07-22T06:35:25.042Z,19.71
2018-07-22T06:36:25.030Z,19.86
2018-07-22T06:37:25.026Z,19.86
2018-07-22T06:38:25.023Z,19.94
2018-07-22T06:39:25.023Z,19.91
2018-07-22T06:40:25.023Z,19.94
2018-07-22T06:41:25.019Z,19.92
2018-07-22T06:42:25.023Z,19.88
2018-07-22T06:43:25.010Z,19.99
2018-07-22T06:44:25.016Z,19.96
2018-07-22T06:45:25.005Z,20.02
2018-07-22T06:46:25.003Z,20.13
2018-07-22T06:47:25.006Z,20.21
2018-07-22T06:48:25.000Z,20.25
2018-07-22T06:49:24.995Z,20.25
2018-07-22T06:50:24.996Z,20.41
2018-07-22T06:51:24.990Z,20.39
2018-07-22T06:52:24.988Z,20.51
2018-07-22T06:53:25.043Z,20.50
2018-07-22T06:54:25.052Z,20.56
2018-07-22T06:55:24.982Z,20.51
2018-07-22T06:56:24.980Z,20.47
2018-07-22T06:57:24.978Z,20.56
2018-07-22T06:58:24.978Z,20.62
2018-07-22T06:59:24.984Z,20.66
2018-07-22T07:00:24.976Z,20.74
2018-07-22T07:01:24.969Z,20.81
2018-07-22T07:02:24.967Z,20.88
2018-07-22T07:03:24.969Z,20.90
2018-07-22T07:04:24.963Z,20.97
2018-07-22T07:05:25.045Z,21.07
2018-07-22T07:06:25.163Z,20.96
2018-07-22T07:07:24.958Z,20.96
2018-07-22T07:08:24.989Z,21.06
2018-07-22T07:09:25.157Z,21.07
2018-07-22T07:10:24.954Z,21.25
2018-07-22T07:11:24.957Z,21.29
2018-07-22T07:12:24.955Z,21.45
2018-07-22T07:13:24.953Z,21.58
2018-07-22T07:14:24.947Z,21.72
2018-07-22T07:15:24.945Z,21.80
2018-07-22T07:16:24.945Z,21.92
2018-07-22T07:17:24.944Z,21.91
2018-07-22T07:18:24.947Z,22.07
2018-07-22T07:19:24.947Z,22.14
2018-07-22T07:20:24.942Z,22.20
2018-07-22T07:21:24.942Z,22.35
2018-07-22T07:22:24.943Z,22.22
2018-07-22T07:23:24.942Z,22.20
2018-07-22T07:24:25.163Z,22.29
2018-07-22T07:25:24.943Z,22.39
2018-07-22T07:26:24.944Z,22.65
2018-07-22T07:27:25.149Z,22.69
2018-07-22T07:28:24.947Z,22.87
2018-07-22T07:29:24.950Z,22.99
2018-07-22T07:30:25.154Z,23.05
2018-07-22T07:31:24.953Z,23.09
2018-07-22T07:32:24.958Z,23.09
2018-07-22T07:33:24.959Z,22.84
2018-07-22T07:34:25.003Z,22.94
2018-07-22T07:35:24.969Z,22.98
2018-07-22T07:36:24.971Z,23.13
2018-07-22T07:37:24.977Z,23.17
2018-07-22T07:38:24.980Z,23.18
2018-07-22T07:39:24.990Z,23.34
2018-07-22T07:40:24.990Z,23.56
2018-07-22T07:41:24.999Z,23.86
2018-07-22T07:42:25.080Z,23.93
2018-07-22T07:43:25.209Z,24.17
2018-07-22T07:44:25.016Z,24.36
2018-07-22T07:45:25.024Z,24.47
2018-07-22T07:46:25.028Z,24.38
2018-07-22T07:47:25.035Z,24.55
2018-07-22T07:48:25.045Z,24.40
2018-07-22T07:49:25.049Z,24.60
2018-07-22T07:50:25.061Z,24.68
2018-07-22T07:51:25.067Z,24.65
2018-07-22T07:52:25.072Z,24.50
2018-07-22T07:53:25.097Z,24.40
2018-07-22T07:54:25.089Z,24.24
2018-07-22T07:55:25.096Z,24.33
2018-07-22T07:56:25.109Z,24.38
2018-07-22T07:57:25.113Z,24.26
2018-07-22T07:58:25.125Z,24.17
2018-07-22T07:59:25.156Z,24.02
2018-07-22T08:00:25.138Z,24.23
2018-07-22T08:01:25.150Z,24.17
2018-07-22T08:02:25.155Z,24.23
2018-07-22T08:03:25.163Z,24.38
2018-07-22T08:04:25.172Z,24.45
2018-07-22T08:05:25.185Z,24.60
2018-07-22T08:06:25.196Z,24.89
2018-07-22T08:07:25.204Z,25.10
2018-07-22T08:08:25.209Z,25.08
2018-07-22T08:09:25.225Z,25.14
2018-07-22T08:10:25.228Z,25.46
2018-07-22T08:11:25.237Z,25.59
2018-07-22T08:12:25.247Z,25.65
2018-07-22T08:13:25.257Z,25.59
2018-07-22T08:14:25.270Z,25.51
2018-07-22T08:15:25.276Z,25.65
2018-07-22T08:16:25.488Z,26.02
2018-07-22T08:17:25.299Z,26.21
2018-07-22T08:18:25.310Z,26.37
2018-07-22T08:19:25.545Z,26.26
2018-07-22T08:20:25.328Z,26.25
2018-07-22T08:21:26.478Z,26.19
2018-07-22T08:22:25.352Z,26.10
2018-07-22T08:23:25.367Z,25.93
2018-07-22T08:24:25.372Z,25.85
2018-07-22T08:25:25.382Z,25.70
2018-07-22T08:26:25.394Z,25.65
2018-07-22T08:27:25.405Z,25.68
2018-07-22T08:28:25.414Z,25.48
2018-07-22T08:29:25.433Z,25.59
2018-07-22T08:30:25.485Z,25.77
2018-07-22T08:31:25.445Z,25.98
2018-07-22T08:32:25.459Z,25.88
2018-07-22T08:33:25.473Z,25.85
2018-07-22T08:34:25.486Z,26.15
2018-07-22T08:35:25.493Z,26.16
2018-07-22T08:36:25.504Z,26.48
2018-07-22T08:37:25.512Z,26.59
2018-07-22T08:38:25.523Z,26.44
2018-07-22T08:39:25.534Z,26.51
2018-07-22T08:40:25.545Z,26.56
2018-07-22T08:41:25.572Z,26.55
2018-07-22T08:42:25.569Z,26.53
2018-07-22T08:43:25.582Z,26.77
2018-07-22T08:44:25.592Z,26.81
2018-07-22T08:45:25.603Z,26.92
2018-07-22T08:46:25.616Z,26.99
2018-07-22T08:47:25.628Z,26.85
2018-07-22T08:48:25.639Z,26.88
2018-07-22T08:49:25.658Z,27.05
2018-07-22T08:50:25.664Z,27.05
2018-07-22T08:51:25.883Z,27.14
2018-07-22T08:52:25.692Z,26.81
2018-07-22T08:53:25.705Z,26.74
2018-07-22T08:54:25.716Z,26.88
2018-07-22T08:55:25.724Z,26.78
2018-07-22T08:56:25.939Z,26.85
2018-07-22T08:57:25.752Z,26.81
2018-07-22T08:58:25.761Z,26.88
2018-07-22T08:59:25.975Z,27.05
2018-07-22T09:00:25.787Z,27.36
2018-07-22T09:01:25.798Z,27.60
2018-07-22T09:02:25.811Z,27.55
2018-07-22T09:03:25.823Z,27.98
2018-07-22T09:04:25.837Z,28.02
2018-07-22T09:05:25.865Z,28.04
2018-07-22T09:06:25.866Z,28.14
2018-07-22T09:07:25.875Z,28.29
2018-07-22T09:08:25.888Z,28.72
2018-07-22T09:09:25.909Z,28.81
2018-07-22T09:10:25.916Z,28.81
2018-07-22T09:11:25.930Z,28.67
2018-07-22T09:13:25.962Z,28.19
2018-07-22T09:14:25.976Z,28.15
2018-07-22T09:15:25.985Z,28.15
2018-07-22T09:16:25.998Z,28.37
2018-07-22T09:17:26.019Z,28.38
2018-07-22T09:18:26.027Z,28.30
2018-07-22T09:19:26.043Z,28.52
2018-07-22T09:20:26.052Z,28.88
2018-07-22T09:21:26.067Z,29.12
2018-07-22T09:22:26.083Z,29.19
2018-07-22T09:23:26.094Z,29.19
2018-07-22T09:24:26.110Z,28.96
2018-07-22T09:25:26.125Z,28.75
2018-07-22T09:26:26.138Z,28.57
2018-07-22T09:27:26.152Z,28.78
2018-07-22T09:28:26.167Z,29.05
2018-07-22T09:29:26.183Z,29.45
2018-07-22T09:30:26.401Z,29.75
2018-07-22T09:31:26.213Z,29.97
2018-07-22T09:32:26.225Z,30.23
2018-07-22T09:33:26.247Z,30.47
2018-07-22T09:34:26.256Z,30.69
2018-07-22T09:35:26.271Z,30.47
2018-07-22T09:36:26.329Z,29.91
2018-07-22T09:37:26.302Z,29.36
2018-07-22T09:38:26.319Z,29.19
2018-07-22T09:39:26.332Z,29.24
2018-07-22T09:40:26.347Z,29.50
2018-07-22T09:41:26.363Z,29.78
2018-07-22T09:42:26.378Z,30.02
2018-07-22T09:43:26.395Z,29.95
2018-07-22T09:44:26.413Z,29.95
2018-07-22T09:45:26.426Z,30.06
2018-07-22T09:46:26.442Z,30.06
2018-07-22T09:47:26.461Z,29.65
2018-07-22T09:48:26.472Z,29.27
2018-07-22T09:49:26.487Z,29.23
2018-07-22T09:50:26.503Z,29.14
2018-07-22T09:51:26.518Z,28.84
2018-07-22T09:52:26.533Z,28.85
2018-07-22T09:53:26.548Z,28.66
2018-07-22T09:54:26.563Z,28.84
2018-07-22T09:55:26.578Z,28.97
2018-07-22T09:56:26.593Z,29.29
2018-07-22T09:57:26.611Z,29.59
2018-07-22T09:58:26.664Z,29.82
2018-07-22T09:59:26.639Z,29.47
2018-07-22T10:00:26.655Z,29.34
2018-07-22T10:01:26.670Z,29.26
2018-07-22T10:02:26.691Z,28.91
2018-07-22T10:03:26.708Z,29.10
2018-07-22T10:04:26.771Z,29.41
2018-07-22T10:05:26.733Z,29.24
2018-07-22T10:06:26.745Z,29.08
2018-07-22T10:07:26.760Z,29.10
2018-07-22T10:08:26.776Z,29.19
2018-07-22T10:09:26.791Z,29.38
2018-07-22T10:10:26.806Z,29.66
2018-07-22T10:11:26.819Z,29.90
2018-07-22T10:12:26.836Z,30.39
2018-07-22T10:13:26.851Z,30.54
2018-07-22T10:14:26.888Z,30.59
2018-07-22T10:15:27.082Z,30.50
2018-07-22T10:16:26.896Z,30.34
2018-07-22T10:17:26.912Z,30.43
2018-07-22T10:18:26.928Z,30.43
2018-07-22T10:19:26.943Z,30.32
2018-07-22T10:20:26.959Z,30.21
2018-07-22T10:21:26.977Z,30.46
2018-07-22T10:22:26.996Z,30.70
2018-07-22T10:23:27.087Z,30.80
2018-07-22T10:24:27.023Z,31.25
2018-07-22T10:25:27.043Z,31.43
2018-07-22T10:26:27.056Z,31.28
2018-07-22T10:27:27.076Z,31.24
2018-07-22T10:28:27.091Z,31.36
2018-07-22T10:29:27.106Z,31.44
2018-07-22T10:31:27.140Z,31.55
2018-07-22T10:32:27.158Z,31.73
2018-07-22T10:33:27.171Z,31.54
2018-07-22T10:34:27.188Z,31.29
2018-07-22T10:35:27.203Z,31.46
2018-07-22T10:36:27.221Z,31.33
2018-07-22T10:37:27.237Z,31.18
2018-07-22T10:38:27.253Z,30.83
2018-07-22T10:39:27.270Z,30.57
2018-07-22T10:40:27.292Z,30.63
2018-07-22T10:41:27.303Z,30.53
2018-07-22T10:42:27.320Z,30.46
2018-07-22T10:43:27.538Z,30.83
2018-07-22T10:44:27.350Z,31.03
2018-07-22T10:45:27.366Z,31.06
2018-07-22T10:46:27.386Z,30.91
2018-07-22T10:47:27.398Z,30.77
2018-07-22T10:48:27.414Z,30.75
2018-07-22T10:49:27.430Z,30.84
2018-07-22T10:50:27.447Z,30.92
2018-07-22T10:51:27.463Z,31.10
2018-07-22T10:52:27.479Z,31.28
2018-07-22T10:53:27.533Z,31.55
2018-07-22T10:54:27.512Z,31.54
2018-07-22T10:55:27.528Z,31.85
2018-07-22T10:56:27.545Z,32.15
2018-07-22T10:57:27.562Z,32.04
2018-07-22T10:58:27.579Z,31.84
2018-07-22T10:59:27.595Z,31.77
2018-07-22T11:00:27.616Z,31.52
2018-07-22T11:01:27.629Z,31.62
2018-07-22T11:02:27.696Z,31.66
2018-07-22T11:04:27.682Z,31.85
2018-07-22T11:05:27.695Z,31.85
2018-07-22T11:06:27.714Z,31.34
2018-07-22T11:07:27.727Z,31.10
2018-07-22T11:08:27.752Z,31.02
2018-07-22T11:09:27.763Z,30.90
2018-07-22T11:10:27.780Z,31.21
2018-07-22T11:11:27.996Z,31.52
2018-07-22T11:12:27.805Z,31.96
2018-07-22T11:13:27.827Z,32.15
2018-07-22T11:14:27.920Z,32.09
2018-07-22T11:15:27.853Z,32.14
2018-07-22T11:16:27.870Z,32.19
2018-07-22T11:17:27.888Z,32.60
2018-07-22T11:18:27.913Z,32.97
2018-07-22T11:19:28.132Z,33.08
2018-07-22T11:20:27.937Z,32.92
2018-07-22T11:21:27.955Z,33.01
2018-07-22T11:22:27.972Z,33.12
2018-07-22T11:23:27.993Z,33.46
2018-07-22T11:24:28.007Z,33.69
2018-07-22T11:25:28.024Z,33.84
2018-07-22T11:26:28.041Z,34.06
2018-07-22T11:27:28.057Z,33.81
2018-07-22T11:28:28.081Z,33.24
2018-07-22T11:29:28.095Z,32.86
2018-07-22T11:30:28.313Z,32.80
2018-07-22T11:31:28.131Z,33.00
2018-07-22T11:32:28.144Z,32.89
2018-07-22T11:33:28.167Z,33.20
2018-07-22T11:34:28.178Z,33.40
2018-07-22T11:35:28.194Z,33.15
2018-07-22T11:36:28.212Z,33.36
2018-07-22T11:37:28.229Z,33.61
2018-07-22T11:38:28.247Z,33.62
2018-07-22T11:39:28.264Z,33.58
2018-07-22T11:40:28.291Z,33.24
2018-07-22T11:41:28.304Z,33.04
2018-07-22T11:42:28.317Z,32.77
2018-07-22T11:43:28.334Z,32.83
2018-07-22T11:44:28.559Z,32.90
2018-07-22T11:45:28.373Z,33.02
2018-07-22T11:46:28.392Z,32.87
2018-07-22T11:47:28.410Z,33.02
2018-07-22T11:48:28.427Z,33.34
2018-07-22T11:49:28.440Z,33.20
2018-07-22T11:50:28.489Z,33.34
2018-07-22T11:51:28.475Z,33.34
2018-07-22T11:52:28.493Z,33.42
2018-07-22T11:53:28.513Z,33.53
2018-07-22T11:54:28.528Z,33.69
2018-07-22T11:55:28.751Z,33.64
2018-07-22T11:56:28.563Z,33.67
2018-07-22T11:57:28.582Z,33.61
2018-07-22T11:58:28.598Z,33.57
2018-07-22T11:59:28.617Z,33.24
2018-07-22T12:00:28.637Z,33.23
2018-07-22T12:01:28.754Z,33.52
2018-07-22T12:02:28.666Z,33.73
2018-07-22T12:03:28.684Z,33.81
2018-07-22T12:04:28.700Z,33.77
2018-07-22T12:05:28.721Z,33.74
2018-07-22T12:06:28.739Z,33.95
2018-07-22T12:07:28.751Z,33.89
2018-07-22T12:08:28.769Z,33.98
2018-07-22T12:09:28.783Z,33.57
2018-07-22T12:10:28.804Z,33.49
2018-07-22T12:11:28.816Z,33.84
2018-07-22T12:12:28.905Z,34.10
2018-07-22T12:13:28.850Z,34.24
2018-07-22T12:14:28.868Z,34.40
2018-07-22T12:15:28.884Z,34.64
2018-07-22T12:16:28.904Z,34.85
2018-07-22T12:17:28.924Z,35.07
2018-07-22T12:18:28.936Z,34.97
2018-07-22T12:19:28.958Z,35.04
2018-07-22T12:20:28.974Z,34.86
2018-07-22T12:21:28.990Z,34.55
2018-07-22T12:22:29.005Z,34.47
2018-07-22T12:23:29.021Z,34.13
2018-07-22T12:24:29.038Z,33.71
2018-07-22T12:25:29.058Z,33.95
2018-07-22T12:26:29.075Z,34.20
2018-07-22T12:27:29.088Z,34.35
2018-07-22T12:28:29.104Z,34.50
2018-07-22T12:29:29.118Z,34.40
2018-07-22T12:30:29.133Z,33.80
2018-07-22T12:31:29.145Z,33.22
2018-07-22T12:32:29.163Z,33.02
2018-07-22T12:33:29.175Z,32.74
2018-07-22T12:34:29.295Z,32.74
2018-07-22T12:35:29.202Z,32.92
2018-07-22T12:36:29.421Z,33.27
2018-07-22T12:37:29.233Z,33.61
2018-07-22T12:38:29.246Z,33.96
2018-07-22T12:39:29.262Z,34.14
2018-07-22T12:40:29.293Z,34.47
2018-07-22T12:41:29.289Z,34.70
2018-07-22T12:42:29.308Z,34.36
2018-07-22T12:43:29.321Z,34.29
2018-07-22T12:44:29.337Z,34.45
2018-07-22T12:45:29.351Z,34.36
2018-07-22T12:46:29.416Z,34.50
2018-07-22T12:47:29.376Z,34.50
2018-07-22T12:48:29.392Z,34.33
2018-07-22T12:49:29.402Z,34.08
2018-07-22T12:50:29.419Z,33.77
2018-07-22T12:51:29.428Z,32.96
2018-07-22T12:52:29.441Z,32.49
2018-07-22T12:53:29.453Z,31.97
2018-07-22T12:54:29.470Z,31.58
2018-07-22T12:55:29.478Z,31.24
2018-07-22T12:56:29.493Z,30.91
2018-07-22T12:57:29.501Z,30.66